sensor_id;sensor_type;location;lat;lon;timestamp;temperature;humidity
59847;DHT22;45728;48.788;2.302;2022-07-29T00:00:10;20.70;82.40
59847;DHT22;45728;48.788;2.302;2022-07-29T00:02:37;20.60;82.70
59847;DHT22;45728;48.788;2.302;2022-07-29T00:05:04;20.50;82.80
59847;DHT22;45728;48.788;2.302;2022-07-29T00:07:30;20.50;83.00
59847;DHT22;45728;48.788;2.302;2022-07-29T00:09:56;20.50;83.00
59847;DHT22;45728;48.788;2.302;2022-07-29T00:12:24;20.40;83.40
59847;DHT22;45728;48.788;2.302;2022-07-29T00:14:50;20.30;83.50
59847;DHT22;45728;48.788;2.302;2022-07-29T00:17:16;20.30;83.40
59847;DHT22;45728;48.788;2.302;2022-07-29T00:19:42;20.30;83.90
59847;DHT22;45728;48.788;2.302;2022-07-29T00:22:08;20.20;84.00
59847;DHT22;45728;48.788;2.302;2022-07-29T00:24:34;20.30;84.10
59847;DHT22;45728;48.788;2.302;2022-07-29T00:27:00;20.30;83.40
59847;DHT22;45728;48.788;2.302;2022-07-29T00:29:26;20.30;83.90
59847;DHT22;45728;48.788;2.302;2022-07-29T00:31:52;20.30;84.20
59847;DHT22;45728;48.788;2.302;2022-07-29T00:34:19;20.20;84.30
59847;DHT22;45728;48.788;2.302;2022-07-29T00:37:03;20.10;85.20
59847;DHT22;45728;48.788;2.302;2022-07-29T00:39:29;19.90;85.40
59847;DHT22;45728;48.788;2.302;2022-07-29T00:41:56;19.90;85.50
59847;DHT22;45728;48.788;2.302;2022-07-29T00:44:22;19.90;85.10
59847;DHT22;45728;48.788;2.302;2022-07-29T00:46:48;20.00;84.70
59847;DHT22;45728;48.788;2.302;2022-07-29T00:49:14;19.90;85.50
59847;DHT22;45728;48.788;2.302;2022-07-29T00:51:40;19.80;85.80
59847;DHT22;45728;48.788;2.302;2022-07-29T00:54:07;19.70;85.90
59847;DHT22;45728;48.788;2.302;2022-07-29T00:56:33;19.70;86.00
59847;DHT22;45728;48.788;2.302;2022-07-29T00:59:00;19.70;86.10
59847;DHT22;45728;48.788;2.302;2022-07-29T01:01:26;19.70;86.00
59847;DHT22;45728;48.788;2.302;2022-07-29T01:03:53;19.60;86.60
59847;DHT22;45728;48.788;2.302;2022-07-29T01:06:20;19.70;86.30
59847;DHT22;45728;48.788;2.302;2022-07-29T01:08:47;19.60;86.30
59847;DHT22;45728;48.788;2.302;2022-07-29T01:11:15;19.60;86.50
59847;DHT22;45728;48.788;2.302;2022-07-29T01:13:43;19.50;86.40
59847;DHT22;45728;48.788;2.302;2022-07-29T01:16:31;19.50;86.90
59847;DHT22;45728;48.788;2.302;2022-07-29T01:19:13;19.50;86.80
59847;DHT22;45728;48.788;2.302;2022-07-29T01:21:55;19.40;87.30
59847;DHT22;45728;48.788;2.302;2022-07-29T01:29:58;19.30;87.90
59847;DHT22;45728;48.788;2.302;2022-07-29T01:32:35;19.20;88.40
59847;DHT22;45728;48.788;2.302;2022-07-29T01:35:02;19.20;88.50
59847;DHT22;45728;48.788;2.302;2022-07-29T01:37:48;19.10;88.80
59847;DHT22;45728;48.788;2.302;2022-07-29T01:42:52;19.10;89.30
59847;DHT22;45728;48.788;2.302;2022-07-29T01:45:26;19.10;89.40
59847;DHT22;45728;48.788;2.302;2022-07-29T01:48:05;19.10;89.50
59847;DHT22;45728;48.788;2.302;2022-07-29T01:50:45;19.10;89.40
59847;DHT22;45728;48.788;2.302;2022-07-29T01:53:11;19.10;89.70
59847;DHT22;45728;48.788;2.302;2022-07-29T01:55:41;19.10;89.10
59847;DHT22;45728;48.788;2.302;2022-07-29T01:58:08;19.10;89.70
59847;DHT22;45728;48.788;2.302;2022-07-29T02:00:35;19.10;89.60
59847;DHT22;45728;48.788;2.302;2022-07-29T02:03:05;19.00;89.80
59847;DHT22;45728;48.788;2.302;2022-07-29T02:05:35;18.90;90.20
59847;DHT22;45728;48.788;2.302;2022-07-29T02:08:04;18.70;90.40
59847;DHT22;45728;48.788;2.302;2022-07-29T02:10:32;18.70;90.70
59847;DHT22;45728;48.788;2.302;2022-07-29T02:12:59;18.70;90.40
59847;DHT22;45728;48.788;2.302;2022-07-29T02:15:29;18.70;90.40
59847;DHT22;45728;48.788;2.302;2022-07-29T02:18:00;18.70;90.60
59847;DHT22;45728;48.788;2.302;2022-07-29T02:20:28;18.70;90.60
59847;DHT22;45728;48.788;2.302;2022-07-29T02:22:55;18.70;90.70
59847;DHT22;45728;48.788;2.302;2022-07-29T02:25:23;18.70;90.30
59847;DHT22;45728;48.788;2.302;2022-07-29T02:27:50;18.70;90.60
59847;DHT22;45728;48.788;2.302;2022-07-29T02:30:18;18.70;90.80
59847;DHT22;45728;48.788;2.302;2022-07-29T02:32:46;18.70;90.80
59847;DHT22;45728;48.788;2.302;2022-07-29T02:35:14;18.60;91.00
59847;DHT22;45728;48.788;2.302;2022-07-29T02:37:43;18.60;91.10
59847;DHT22;45728;48.788;2.302;2022-07-29T02:40:14;18.70;91.00
59847;DHT22;45728;48.788;2.302;2022-07-29T02:42:42;18.60;91.00
59847;DHT22;45728;48.788;2.302;2022-07-29T02:45:10;18.50;91.30
59847;DHT22;45728;48.788;2.302;2022-07-29T02:47:42;18.40;91.50
59847;DHT22;45728;48.788;2.302;2022-07-29T02:50:13;18.40;91.80
59847;DHT22;45728;48.788;2.302;2022-07-29T02:52:47;18.40;91.60
59847;DHT22;45728;48.788;2.302;2022-07-29T02:55:22;18.40;91.50
59847;DHT22;45728;48.788;2.302;2022-07-29T02:58:00;18.40;91.60
59847;DHT22;45728;48.788;2.302;2022-07-29T03:00:29;18.30;91.90
59847;DHT22;45728;48.788;2.302;2022-07-29T03:02:58;18.20;92.00
59847;DHT22;45728;48.788;2.302;2022-07-29T03:05:25;18.30;91.90
59847;DHT22;45728;48.788;2.302;2022-07-29T03:07:57;18.40;92.10
59847;DHT22;45728;48.788;2.302;2022-07-29T03:10:27;18.30;92.00
59847;DHT22;45728;48.788;2.302;2022-07-29T03:12:57;18.30;92.10
59847;DHT22;45728;48.788;2.302;2022-07-29T03:15:24;18.20;92.00
59847;DHT22;45728;48.788;2.302;2022-07-29T03:17:51;18.20;92.20
59847;DHT22;45728;48.788;2.302;2022-07-29T03:20:18;18.20;92.20
59847;DHT22;45728;48.788;2.302;2022-07-29T03:22:45;18.20;92.30
59847;DHT22;45728;48.788;2.302;2022-07-29T03:25:16;18.20;92.60
59847;DHT22;45728;48.788;2.302;2022-07-29T03:27:43;18.10;92.60
59847;DHT22;45728;48.788;2.302;2022-07-29T03:30:11;18.10;92.70
59847;DHT22;45728;48.788;2.302;2022-07-29T03:32:38;18.10;92.60
59847;DHT22;45728;48.788;2.302;2022-07-29T03:35:06;18.10;92.80
59847;DHT22;45728;48.788;2.302;2022-07-29T03:37:32;18.10;92.90
59847;DHT22;45728;48.788;2.302;2022-07-29T03:40:01;18.10;92.90
59847;DHT22;45728;48.788;2.302;2022-07-29T03:42:31;18.10;92.70
59847;DHT22;45728;48.788;2.302;2022-07-29T03:44:58;18.10;93.00
59847;DHT22;45728;48.788;2.302;2022-07-29T03:47:27;18.00;93.10
59847;DHT22;45728;48.788;2.302;2022-07-29T03:50:00;17.90;93.40
59847;DHT22;45728;48.788;2.302;2022-07-29T03:52:27;17.90;93.70
59847;DHT22;45728;48.788;2.302;2022-07-29T03:54:54;17.90;93.60
59847;DHT22;45728;48.788;2.302;2022-07-29T03:57:23;17.90;93.30
59847;DHT22;45728;48.788;2.302;2022-07-29T03:59:51;18.00;93.30
59847;DHT22;45728;48.788;2.302;2022-07-29T04:02:18;17.90;93.40
59847;DHT22;45728;48.788;2.302;2022-07-29T04:04:45;17.90;93.30
59847;DHT22;45728;48.788;2.302;2022-07-29T04:07:15;18.00;93.30
59847;DHT22;45728;48.788;2.302;2022-07-29T04:09:41;17.90;93.70
59847;DHT22;45728;48.788;2.302;2022-07-29T04:12:08;17.90;93.50
59847;DHT22;45728;48.788;2.302;2022-07-29T04:14:34;17.80;93.80
59847;DHT22;45728;48.788;2.302;2022-07-29T04:17:02;17.70;93.90
59847;DHT22;45728;48.788;2.302;2022-07-29T04:19:28;17.80;93.90
59847;DHT22;45728;48.788;2.302;2022-07-29T04:21:54;17.80;94.00
59847;DHT22;45728;48.788;2.302;2022-07-29T04:24:20;17.80;94.10
59847;DHT22;45728;48.788;2.302;2022-07-29T04:26:46;17.80;94.10
59847;DHT22;45728;48.788;2.302;2022-07-29T04:29:13;17.90;94.10
59847;DHT22;45728;48.788;2.302;2022-07-29T04:31:40;17.90;94.10
59847;DHT22;45728;48.788;2.302;2022-07-29T04:34:07;17.90;94.20
59847;DHT22;45728;48.788;2.302;2022-07-29T04:36:33;18.00;94.20
59847;DHT22;45728;48.788;2.302;2022-07-29T04:38:59;18.10;94.40
59847;DHT22;45728;48.788;2.302;2022-07-29T04:41:30;18.10;94.60
59847;DHT22;45728;48.788;2.302;2022-07-29T04:43:57;18.20;94.30
59847;DHT22;45728;48.788;2.302;2022-07-29T04:46:23;18.20;94.50
59847;DHT22;45728;48.788;2.302;2022-07-29T04:48:49;18.20;94.30
59847;DHT22;45728;48.788;2.302;2022-07-29T04:51:15;18.20;94.30
59847;DHT22;45728;48.788;2.302;2022-07-29T04:53:41;18.20;94.30
59847;DHT22;45728;48.788;2.302;2022-07-29T04:56:07;18.30;94.30
59847;DHT22;45728;48.788;2.302;2022-07-29T04:58:36;18.50;94.20
59847;DHT22;45728;48.788;2.302;2022-07-29T05:01:03;18.60;93.30
59847;DHT22;45728;48.788;2.302;2022-07-29T05:03:29;18.70;93.30
59847;DHT22;45728;48.788;2.302;2022-07-29T05:05:55;18.80;93.40
59847;DHT22;45728;48.788;2.302;2022-07-29T05:08:21;18.90;93.40
59847;DHT22;45728;48.788;2.302;2022-07-29T05:10:47;19.00;93.80
59847;DHT22;45728;48.788;2.302;2022-07-29T05:13:13;19.10;93.50
59847;DHT22;45728;48.788;2.302;2022-07-29T05:15:39;19.10;93.40
59847;DHT22;45728;48.788;2.302;2022-07-29T05:18:05;19.20;93.70
59847;DHT22;45728;48.788;2.302;2022-07-29T05:20:32;19.30;93.50
59847;DHT22;45728;48.788;2.302;2022-07-29T05:22:59;19.40;92.20
59847;DHT22;45728;48.788;2.302;2022-07-29T05:25:27;19.40;93.20
59847;DHT22;45728;48.788;2.302;2022-07-29T05:27:54;19.40;92.50
59847;DHT22;45728;48.788;2.302;2022-07-29T05:30:20;19.50;92.10
59847;DHT22;45728;48.788;2.302;2022-07-29T05:32:46;19.40;91.70
59847;DHT22;45728;48.788;2.302;2022-07-29T05:35:13;19.40;91.50
59847;DHT22;45728;48.788;2.302;2022-07-29T05:37:40;19.40;91.40
59847;DHT22;45728;48.788;2.302;2022-07-29T05:40:06;19.40;91.40
59847;DHT22;45728;48.788;2.302;2022-07-29T05:42:32;19.40;91.50
59847;DHT22;45728;48.788;2.302;2022-07-29T05:45:00;19.40;91.50
59847;DHT22;45728;48.788;2.302;2022-07-29T05:47:27;19.40;91.60
59847;DHT22;45728;48.788;2.302;2022-07-29T05:49:53;19.40;91.50
59847;DHT22;45728;48.788;2.302;2022-07-29T05:52:20;19.40;91.50
59847;DHT22;45728;48.788;2.302;2022-07-29T05:54:47;19.40;91.50
59847;DHT22;45728;48.788;2.302;2022-07-29T05:57:17;19.50;91.40
59847;DHT22;45728;48.788;2.302;2022-07-29T05:59:43;19.50;91.40
59847;DHT22;45728;48.788;2.302;2022-07-29T06:02:09;19.60;91.50
59847;DHT22;45728;48.788;2.302;2022-07-29T06:04:35;19.60;91.40
59847;DHT22;45728;48.788;2.302;2022-07-29T06:07:01;19.60;91.40
59847;DHT22;45728;48.788;2.302;2022-07-29T06:09:27;19.60;91.40
59847;DHT22;45728;48.788;2.302;2022-07-29T06:11:53;19.60;91.40
59847;DHT22;45728;48.788;2.302;2022-07-29T06:14:19;19.60;91.50
59847;DHT22;45728;48.788;2.302;2022-07-29T06:16:46;19.70;91.30
59847;DHT22;45728;48.788;2.302;2022-07-29T06:19:12;19.70;91.30
59847;DHT22;45728;48.788;2.302;2022-07-29T06:21:45;19.80;91.40
59847;DHT22;45728;48.788;2.302;2022-07-29T06:24:12;19.90;91.20
59847;DHT22;45728;48.788;2.302;2022-07-29T06:26:40;20.00;91.10
59847;DHT22;45728;48.788;2.302;2022-07-29T06:29:06;20.00;91.10
59847;DHT22;45728;48.788;2.302;2022-07-29T06:31:33;20.00;91.10
59847;DHT22;45728;48.788;2.302;2022-07-29T06:33:59;20.00;90.90
59847;DHT22;45728;48.788;2.302;2022-07-29T06:36:25;20.10;91.10
59847;DHT22;45728;48.788;2.302;2022-07-29T06:38:51;20.10;90.90
59847;DHT22;45728;48.788;2.302;2022-07-29T06:41:17;20.20;90.90
59847;DHT22;45728;48.788;2.302;2022-07-29T06:43:44;20.30;90.90
59847;DHT22;45728;48.788;2.302;2022-07-29T06:46:13;20.60;90.70
59847;DHT22;45728;48.788;2.302;2022-07-29T06:48:41;20.60;90.60
59847;DHT22;45728;48.788;2.302;2022-07-29T06:51:11;20.80;90.50
59847;DHT22;45728;48.788;2.302;2022-07-29T06:53:38;20.80;90.50
59847;DHT22;45728;48.788;2.302;2022-07-29T06:56:06;21.00;90.50
59847;DHT22;45728;48.788;2.302;2022-07-29T06:58:34;21.10;90.40
59847;DHT22;45728;48.788;2.302;2022-07-29T07:01:03;21.20;90.40
59847;DHT22;45728;48.788;2.302;2022-07-29T07:03:29;21.40;90.30
59847;DHT22;45728;48.788;2.302;2022-07-29T07:05:56;21.50;90.20
59847;DHT22;45728;48.788;2.302;2022-07-29T07:08:23;21.50;90.10
59847;DHT22;45728;48.788;2.302;2022-07-29T07:10:50;21.50;90.30
59847;DHT22;45728;48.788;2.302;2022-07-29T07:13:16;21.50;90.10
59847;DHT22;45728;48.788;2.302;2022-07-29T07:15:46;21.40;90.10
59847;DHT22;45728;48.788;2.302;2022-07-29T07:18:14;21.50;90.10
59847;DHT22;45728;48.788;2.302;2022-07-29T07:20:41;21.40;90.10
59847;DHT22;45728;48.788;2.302;2022-07-29T07:23:07;21.40;90.10
59847;DHT22;45728;48.788;2.302;2022-07-29T07:25:34;21.40;90.20
59847;DHT22;45728;48.788;2.302;2022-07-29T07:28:00;21.60;90.10
59847;DHT22;45728;48.788;2.302;2022-07-29T07:30:26;21.70;90.10
59847;DHT22;45728;48.788;2.302;2022-07-29T07:32:53;21.90;89.80
59847;DHT22;45728;48.788;2.302;2022-07-29T07:35:20;22.00;89.40
59847;DHT22;45728;48.788;2.302;2022-07-29T07:37:46;22.00;90.00
59847;DHT22;45728;48.788;2.302;2022-07-29T07:40:12;22.10;89.00
59847;DHT22;45728;48.788;2.302;2022-07-29T07:42:40;22.20;89.40
59847;DHT22;45728;48.788;2.302;2022-07-29T07:45:07;22.40;89.30
59847;DHT22;45728;48.788;2.302;2022-07-29T07:47:36;22.50;88.30
59847;DHT22;45728;48.788;2.302;2022-07-29T07:50:04;22.60;89.20
59847;DHT22;45728;48.788;2.302;2022-07-29T07:52:31;22.80;89.00
59847;DHT22;45728;48.788;2.302;2022-07-29T07:54:57;22.90;88.60
59847;DHT22;45728;48.788;2.302;2022-07-29T07:57:23;23.00;87.80
59847;DHT22;45728;48.788;2.302;2022-07-29T07:59:49;23.10;88.00
59847;DHT22;45728;48.788;2.302;2022-07-29T08:02:15;23.10;86.80
59847;DHT22;45728;48.788;2.302;2022-07-29T08:04:41;23.00;86.70
59847;DHT22;45728;48.788;2.302;2022-07-29T08:07:07;23.00;86.70
59847;DHT22;45728;48.788;2.302;2022-07-29T08:09:35;23.10;87.10
59847;DHT22;45728;48.788;2.302;2022-07-29T08:12:01;23.20;85.70
59847;DHT22;45728;48.788;2.302;2022-07-29T08:14:32;23.30;84.20
59847;DHT22;45728;48.788;2.302;2022-07-29T08:16:59;23.30;84.00
59847;DHT22;45728;48.788;2.302;2022-07-29T08:19:25;23.20;83.20
59847;DHT22;45728;48.788;2.302;2022-07-29T08:21:51;23.40;81.80
59847;DHT22;45728;48.788;2.302;2022-07-29T08:24:19;23.30;83.10
59847;DHT22;45728;48.788;2.302;2022-07-29T08:27:04;23.40;82.90
59847;DHT22;45728;48.788;2.302;2022-07-29T08:29:30;23.50;81.60
59847;DHT22;45728;48.788;2.302;2022-07-29T08:31:56;23.50;81.60
59847;DHT22;45728;48.788;2.302;2022-07-29T08:34:22;23.70;82.50
59847;DHT22;45728;48.788;2.302;2022-07-29T08:36:48;23.90;82.10
59847;DHT22;45728;48.788;2.302;2022-07-29T08:39:14;23.90;81.20
59847;DHT22;45728;48.788;2.302;2022-07-29T08:41:40;24.00;81.50
59847;DHT22;45728;48.788;2.302;2022-07-29T08:44:06;24.10;82.10
59847;DHT22;45728;48.788;2.302;2022-07-29T08:46:33;24.20;81.90
59847;DHT22;45728;48.788;2.302;2022-07-29T08:48:59;24.30;81.90
59847;DHT22;45728;48.788;2.302;2022-07-29T08:51:26;24.40;81.00
59847;DHT22;45728;48.788;2.302;2022-07-29T08:53:53;24.40;80.20
59847;DHT22;45728;48.788;2.302;2022-07-29T08:56:20;24.40;80.50
59847;DHT22;45728;48.788;2.302;2022-07-29T08:58:47;24.30;80.90
59847;DHT22;45728;48.788;2.302;2022-07-29T09:01:22;24.50;80.60
59847;DHT22;45728;48.788;2.302;2022-07-29T09:03:50;24.60;81.10
59847;DHT22;45728;48.788;2.302;2022-07-29T09:06:18;24.60;80.30
59847;DHT22;45728;48.788;2.302;2022-07-29T09:08:46;24.60;80.00
59847;DHT22;45728;48.788;2.302;2022-07-29T09:11:13;24.70;80.10
59847;DHT22;45728;48.788;2.302;2022-07-29T09:13:39;24.70;80.00
59847;DHT22;45728;48.788;2.302;2022-07-29T09:16:05;24.70;79.70
59847;DHT22;45728;48.788;2.302;2022-07-29T09:18:40;24.70;79.80
59847;DHT22;45728;48.788;2.302;2022-07-29T09:21:09;24.60;80.20
59847;DHT22;45728;48.788;2.302;2022-07-29T09:24:05;24.60;80.40
59847;DHT22;45728;48.788;2.302;2022-07-29T09:26:34;24.70;80.10
59847;DHT22;45728;48.788;2.302;2022-07-29T09:29:11;24.80;79.90
59847;DHT22;45728;48.788;2.302;2022-07-29T09:31:41;25.10;80.60
59847;DHT22;45728;48.788;2.302;2022-07-29T09:34:08;25.40;79.60
59847;DHT22;45728;48.788;2.302;2022-07-29T09:36:47;25.50;79.50
59847;DHT22;45728;48.788;2.302;2022-07-29T09:39:14;25.70;78.30
59847;DHT22;45728;48.788;2.302;2022-07-29T09:41:53;25.60;77.20
59847;DHT22;45728;48.788;2.302;2022-07-29T09:44:21;25.30;76.70
59847;DHT22;45728;48.788;2.302;2022-07-29T09:47:00;25.50;77.90
59847;DHT22;45728;48.788;2.302;2022-07-29T09:49:34;25.70;77.60
59847;DHT22;45728;48.788;2.302;2022-07-29T09:52:04;25.50;78.30
59847;DHT22;45728;48.788;2.302;2022-07-29T09:54:30;25.80;77.90
59847;DHT22;45728;48.788;2.302;2022-07-29T09:57:09;25.90;77.40
59847;DHT22;45728;48.788;2.302;2022-07-29T09:59:39;26.10;76.90
59847;DHT22;45728;48.788;2.302;2022-07-29T10:02:14;26.30;76.90
59847;DHT22;45728;48.788;2.302;2022-07-29T10:04:41;26.50;76.80
59847;DHT22;45728;48.788;2.302;2022-07-29T10:07:08;26.80;77.20
59847;DHT22;45728;48.788;2.302;2022-07-29T10:09:36;27.30;76.40
59847;DHT22;45728;48.788;2.302;2022-07-29T10:12:09;27.20;76.00
59847;DHT22;45728;48.788;2.302;2022-07-29T10:14:37;27.40;75.40
59847;DHT22;45728;48.788;2.302;2022-07-29T10:17:05;27.40;74.90
59847;DHT22;45728;48.788;2.302;2022-07-29T10:19:32;27.20;74.70
59847;DHT22;45728;48.788;2.302;2022-07-29T10:22:00;27.40;75.80
59847;DHT22;45728;48.788;2.302;2022-07-29T10:24:27;27.90;74.80
59847;DHT22;45728;48.788;2.302;2022-07-29T10:27:00;27.70;73.80
59847;DHT22;45728;48.788;2.302;2022-07-29T10:29:26;27.50;74.30
59847;DHT22;45728;48.788;2.302;2022-07-29T10:43:34;27.70;74.70
59847;DHT22;45728;48.788;2.302;2022-07-29T10:46:02;28.20;73.10
59847;DHT22;45728;48.788;2.302;2022-07-29T10:48:28;28.50;73.20
59847;DHT22;45728;48.788;2.302;2022-07-29T10:51:03;28.40;72.80
59847;DHT22;45728;48.788;2.302;2022-07-29T10:56:30;27.70;73.30
59847;DHT22;45728;48.788;2.302;2022-07-29T11:01:47;27.90;74.10
59847;DHT22;45728;48.788;2.302;2022-07-29T11:04:14;28.40;73.80
59847;DHT22;45728;48.788;2.302;2022-07-29T11:09:24;28.20;73.00
59847;DHT22;45728;48.788;2.302;2022-07-29T11:11:51;27.80;73.30
59847;DHT22;45728;48.788;2.302;2022-07-29T11:14:20;27.70;73.90
59847;DHT22;45728;48.788;2.302;2022-07-29T11:17:05;28.20;73.80
59847;DHT22;45728;48.788;2.302;2022-07-29T11:19:32;28.10;73.40
59847;DHT22;45728;48.788;2.302;2022-07-29T11:21:58;28.00;72.80
59847;DHT22;45728;48.788;2.302;2022-07-29T11:24:29;28.30;73.10
59847;DHT22;45728;48.788;2.302;2022-07-29T11:27:18;28.80;72.80
59847;DHT22;45728;48.788;2.302;2022-07-29T11:32:16;28.40;72.40
59847;DHT22;45728;48.788;2.302;2022-07-29T11:34:47;28.30;72.70
59847;DHT22;45728;48.788;2.302;2022-07-29T11:37:14;28.70;72.60
59847;DHT22;45728;48.788;2.302;2022-07-29T11:45:17;29.40;71.20
59847;DHT22;45728;48.788;2.302;2022-07-29T11:47:49;28.90;71.70
59847;DHT22;45728;48.788;2.302;2022-07-29T11:50:26;29.50;72.00
59847;DHT22;45728;48.788;2.302;2022-07-29T11:52:53;29.90;70.70
59847;DHT22;45728;48.788;2.302;2022-07-29T11:55:23;30.00;70.20
59847;DHT22;45728;48.788;2.302;2022-07-29T11:57:57;29.60;71.10
59847;DHT22;45728;48.788;2.302;2022-07-29T12:00:39;29.60;70.70
59847;DHT22;45728;48.788;2.302;2022-07-29T12:03:10;29.00;70.80
59847;DHT22;45728;48.788;2.302;2022-07-29T12:05:42;28.70;71.60
59847;DHT22;45728;48.788;2.302;2022-07-29T12:08:10;29.30;71.30
59847;DHT22;45728;48.788;2.302;2022-07-29T12:10:38;29.20;70.60
59847;DHT22;45728;48.788;2.302;2022-07-29T12:13:05;29.00;70.50
59847;DHT22;45728;48.788;2.302;2022-07-29T12:15:31;29.20;71.30
59847;DHT22;45728;48.788;2.302;2022-07-29T12:17:57;28.90;70.60
59847;DHT22;45728;48.788;2.302;2022-07-29T12:20:28;28.70;71.00
59847;DHT22;45728;48.788;2.302;2022-07-29T12:22:55;28.60;70.70
59847;DHT22;45728;48.788;2.302;2022-07-29T12:25:24;28.80;71.30
59847;DHT22;45728;48.788;2.302;2022-07-29T12:28:01;29.70;70.40
59847;DHT22;45728;48.788;2.302;2022-07-29T12:35:39;29.10;70.10
59847;DHT22;45728;48.788;2.302;2022-07-29T12:38:05;29.20;70.60
59847;DHT22;45728;48.788;2.302;2022-07-29T12:40:31;29.70;69.90
59847;DHT22;45728;48.788;2.302;2022-07-29T12:45:36;29.90;68.70
59847;DHT22;45728;48.788;2.302;2022-07-29T12:48:03;29.60;68.70
59847;DHT22;45728;48.788;2.302;2022-07-29T12:50:29;29.30;69.50
59847;DHT22;45728;48.788;2.302;2022-07-29T12:53:08;29.50;68.80
59847;DHT22;45728;48.788;2.302;2022-07-29T12:55:43;29.20;69.30
59847;DHT22;45728;48.788;2.302;2022-07-29T12:58:10;29.50;68.90
59847;DHT22;45728;48.788;2.302;2022-07-29T13:00:37;29.70;68.90
59847;DHT22;45728;48.788;2.302;2022-07-29T13:03:03;29.80;68.40
59847;DHT22;45728;48.788;2.302;2022-07-29T13:05:42;30.00;69.00
59847;DHT22;45728;48.788;2.302;2022-07-29T13:08:16;30.20;67.80
59847;DHT22;45728;48.788;2.302;2022-07-29T13:10:44;29.70;68.90
59847;DHT22;45728;48.788;2.302;2022-07-29T13:13:12;29.50;68.70
59847;DHT22;45728;48.788;2.302;2022-07-29T13:15:44;29.20;68.90
59847;DHT22;45728;48.788;2.302;2022-07-29T13:20:55;29.10;69.20
59847;DHT22;45728;48.788;2.302;2022-07-29T13:23:22;29.20;69.20
59847;DHT22;45728;48.788;2.302;2022-07-29T13:25:48;29.20;69.10
59847;DHT22;45728;48.788;2.302;2022-07-29T13:28:14;28.90;69.50
59847;DHT22;45728;48.788;2.302;2022-07-29T13:30:40;29.10;69.60
59847;DHT22;45728;48.788;2.302;2022-07-29T13:33:06;29.60;68.90
59847;DHT22;45728;48.788;2.302;2022-07-29T13:35:32;29.20;68.90
59847;DHT22;45728;48.788;2.302;2022-07-29T13:37:59;29.20;69.50
59847;DHT22;45728;48.788;2.302;2022-07-29T13:40:25;29.60;69.10
59847;DHT22;45728;48.788;2.302;2022-07-29T13:42:51;29.70;68.60
59847;DHT22;45728;48.788;2.302;2022-07-29T13:45:17;29.60;68.50
59847;DHT22;45728;48.788;2.302;2022-07-29T13:47:43;29.90;68.70
59847;DHT22;45728;48.788;2.302;2022-07-29T13:50:09;29.70;68.40
59847;DHT22;45728;48.788;2.302;2022-07-29T13:52:36;30.10;68.30
59847;DHT22;45728;48.788;2.302;2022-07-29T13:55:04;30.00;68.10
59847;DHT22;45728;48.788;2.302;2022-07-29T13:57:30;29.70;68.40
59847;DHT22;45728;48.788;2.302;2022-07-29T13:59:57;29.80;68.20
59847;DHT22;45728;48.788;2.302;2022-07-29T14:02:24;29.70;68.20
59847;DHT22;45728;48.788;2.302;2022-07-29T14:04:50;29.40;68.40
59847;DHT22;45728;48.788;2.302;2022-07-29T14:07:16;29.60;68.80
59847;DHT22;45728;48.788;2.302;2022-07-29T14:09:42;29.90;67.90
59847;DHT22;45728;48.788;2.302;2022-07-29T14:12:08;29.70;68.00
59847;DHT22;45728;48.788;2.302;2022-07-29T14:14:35;29.90;68.70
59847;DHT22;45728;48.788;2.302;2022-07-29T14:17:02;30.50;67.30
59847;DHT22;45728;48.788;2.302;2022-07-29T14:19:28;30.50;67.30
59847;DHT22;45728;48.788;2.302;2022-07-29T14:21:55;29.80;67.70
59847;DHT22;45728;48.788;2.302;2022-07-29T14:24:21;29.90;67.80
59847;DHT22;45728;48.788;2.302;2022-07-29T14:26:47;29.70;67.70
59847;DHT22;45728;48.788;2.302;2022-07-29T14:29:13;29.40;68.10
59847;DHT22;45728;48.788;2.302;2022-07-29T14:31:39;29.30;68.30
59847;DHT22;45728;48.788;2.302;2022-07-29T14:34:05;29.20;68.10
59847;DHT22;45728;48.788;2.302;2022-07-29T14:36:31;29.10;67.90
59847;DHT22;45728;48.788;2.302;2022-07-29T14:38:57;29.00;68.10
59847;DHT22;45728;48.788;2.302;2022-07-29T14:41:23;29.00;68.40
59847;DHT22;45728;48.788;2.302;2022-07-29T14:43:49;29.00;68.50
59847;DHT22;45728;48.788;2.302;2022-07-29T14:46:15;29.10;68.50
59847;DHT22;45728;48.788;2.302;2022-07-29T14:48:41;29.20;68.60
59847;DHT22;45728;48.788;2.302;2022-07-29T14:51:07;29.10;68.20
59847;DHT22;45728;48.788;2.302;2022-07-29T14:53:33;29.10;68.50
59847;DHT22;45728;48.788;2.302;2022-07-29T14:55:59;28.90;68.30
59847;DHT22;45728;48.788;2.302;2022-07-29T14:58:25;28.90;68.50
59847;DHT22;45728;48.788;2.302;2022-07-29T15:00:51;28.90;68.30
59847;DHT22;45728;48.788;2.302;2022-07-29T15:03:17;29.00;68.70
59847;DHT22;45728;48.788;2.302;2022-07-29T15:05:44;29.10;68.30
59847;DHT22;45728;48.788;2.302;2022-07-29T15:08:10;29.20;68.20
59847;DHT22;45728;48.788;2.302;2022-07-29T15:10:36;29.30;68.50
59847;DHT22;45728;48.788;2.302;2022-07-29T15:13:02;29.10;68.30
59847;DHT22;45728;48.788;2.302;2022-07-29T15:15:28;29.10;68.10
59847;DHT22;45728;48.788;2.302;2022-07-29T15:17:54;29.40;68.80
59847;DHT22;45728;48.788;2.302;2022-07-29T15:20:20;29.70;68.50
59847;DHT22;45728;48.788;2.302;2022-07-29T15:22:47;29.50;68.70
59847;DHT22;45728;48.788;2.302;2022-07-29T15:25:13;29.10;67.60
59847;DHT22;45728;48.788;2.302;2022-07-29T15:27:39;29.10;68.60
59847;DHT22;45728;48.788;2.302;2022-07-29T15:30:06;29.10;67.60
59847;DHT22;45728;48.788;2.302;2022-07-29T15:32:33;29.00;68.10
59847;DHT22;45728;48.788;2.302;2022-07-29T15:34:59;29.00;67.60
59847;DHT22;45728;48.788;2.302;2022-07-29T15:37:25;29.20;67.70
59847;DHT22;45728;48.788;2.302;2022-07-29T15:39:51;29.30;67.50
59847;DHT22;45728;48.788;2.302;2022-07-29T15:42:17;29.50;67.50
59847;DHT22;45728;48.788;2.302;2022-07-29T15:44:43;29.40;67.30
59847;DHT22;45728;48.788;2.302;2022-07-29T15:47:09;29.40;67.70
59847;DHT22;45728;48.788;2.302;2022-07-29T15:49:39;29.50;67.80
59847;DHT22;45728;48.788;2.302;2022-07-29T15:52:07;29.70;67.70
59847;DHT22;45728;48.788;2.302;2022-07-29T15:54:35;29.90;67.40
59847;DHT22;45728;48.788;2.302;2022-07-29T15:57:02;30.00;67.30
59847;DHT22;45728;48.788;2.302;2022-07-29T15:59:29;30.00;66.90
59847;DHT22;45728;48.788;2.302;2022-07-29T16:01:55;29.90;67.20
59847;DHT22;45728;48.788;2.302;2022-07-29T16:04:21;30.10;67.30
59847;DHT22;45728;48.788;2.302;2022-07-29T16:06:47;29.80;66.90
59847;DHT22;45728;48.788;2.302;2022-07-29T16:09:15;29.60;67.20
59847;DHT22;45728;48.788;2.302;2022-07-29T16:11:42;29.70;66.80
59847;DHT22;45728;48.788;2.302;2022-07-29T16:14:09;29.70;66.80
59847;DHT22;45728;48.788;2.302;2022-07-29T16:16:37;29.70;66.80
59847;DHT22;45728;48.788;2.302;2022-07-29T16:19:04;29.70;67.00
59847;DHT22;45728;48.788;2.302;2022-07-29T16:21:31;29.60;67.40